Terminal Aerodrome Forecast
Issued by NWS Tampa Bay Area, FL

Home | Current Version | Previous Version | Text Only | Print | Product List | Glossary On
Versions: 1 2 3 4 5 6 7 8 9 10 11 12 13 14 15 16 17 18 19
000
FTUS42 KTBW 300822 AAB
TAFSRQ
TAF AMD
KSRQ 300822Z 3008/0106 VRB03KT P6SM VCTS SCT020CB OVC080
      TEMPO 3008/3011 VRB12G22KT 3SM TSRA BKN020CB
     FM301400 21006KT P6SM VCTS SCT025CB SCT250
     FM302000 26007KT P6SM SCT040 BKN250=

USA.gov is the U.S. government's official web portal to all federal, state and local government web resources and services.